sensor_id;sensor_type;location;lat;lon;timestamp;P1;durP1;ratioP1;P2;durP2;ratioP2
5117;SDS011;2578;51.622;7.046;2022-12-16T00:00:12;5.43;;;4.23;;
5117;SDS011;2578;51.622;7.046;2022-12-16T00:02:38;5.63;;;5.13;;
5117;SDS011;2578;51.622;7.046;2022-12-16T00:05:04;3.50;;;3.20;;
5117;SDS011;2578;51.622;7.046;2022-12-16T00:07:30;3.27;;;2.97;;
5117;SDS011;2578;51.622;7.046;2022-12-16T00:09:56;3.50;;;3.20;;
5117;SDS011;2578;51.622;7.046;2022-12-16T00:12:21;3.00;;;2.67;;
5117;SDS011;2578;51.622;7.046;2022-12-16T00:14:47;2.90;;;2.60;;
5117;SDS011;2578;51.622;7.046;2022-12-16T00:17:12;3.20;;;2.90;;
5117;SDS011;2578;51.622;7.046;2022-12-16T00:19:38;3.60;;;3.30;;
5117;SDS011;2578;51.622;7.046;2022-12-16T00:22:04;5.90;;;5.50;;
5117;SDS011;2578;51.622;7.046;2022-12-16T00:24:30;3.40;;;3.10;;
5117;SDS011;2578;51.622;7.046;2022-12-16T00:26:55;3.47;;;3.17;;
5117;SDS011;2578;51.622;7.046;2022-12-16T00:29:21;3.60;;;3.30;;
5117;SDS011;2578;51.622;7.046;2022-12-16T00:31:47;3.80;;;3.50;;
5117;SDS011;2578;51.622;7.046;2022-12-16T00:34:13;6.47;;;5.80;;
5117;SDS011;2578;51.622;7.046;2022-12-16T00:36:40;11.70;;;7.73;;
5117;SDS011;2578;51.622;7.046;2022-12-16T00:39:06;12.83;;;11.10;;
5117;SDS011;2578;51.622;7.046;2022-12-16T00:41:32;6.93;;;5.33;;
5117;SDS011;2578;51.622;7.046;2022-12-16T00:43:57;4.30;;;3.90;;
5117;SDS011;2578;51.622;7.046;2022-12-16T00:46:23;4.70;;;4.30;;
5117;SDS011;2578;51.622;7.046;2022-12-16T00:48:48;3.40;;;3.10;;
5117;SDS011;2578;51.622;7.046;2022-12-16T00:51:14;3.40;;;3.10;;
5117;SDS011;2578;51.622;7.046;2022-12-16T00:53:39;7.87;;;7.27;;
5117;SDS011;2578;51.622;7.046;2022-12-16T00:56:08;4.67;;;3.93;;
5117;SDS011;2578;51.622;7.046;2022-12-16T00:58:35;4.00;;;3.70;;
5117;SDS011;2578;51.622;7.046;2022-12-16T01:01:02;5.00;;;4.60;;
5117;SDS011;2578;51.622;7.046;2022-12-16T01:03:28;17.37;;;6.93;;
5117;SDS011;2578;51.622;7.046;2022-12-16T01:05:54;22.10;;;10.20;;
5117;SDS011;2578;51.622;7.046;2022-12-16T01:08:20;8.43;;;5.90;;
5117;SDS011;2578;51.622;7.046;2022-12-16T01:10:49;8.67;;;4.87;;
5117;SDS011;2578;51.622;7.046;2022-12-16T01:13:20;3.00;;;2.50;;
5117;SDS011;2578;51.622;7.046;2022-12-16T01:15:46;2.80;;;2.50;;
5117;SDS011;2578;51.622;7.046;2022-12-16T01:18:12;4.07;;;3.10;;
5117;SDS011;2578;51.622;7.046;2022-12-16T01:20:38;3.70;;;3.30;;
5117;SDS011;2578;51.622;7.046;2022-12-16T01:23:03;4.03;;;3.63;;
5117;SDS011;2578;51.622;7.046;2022-12-16T01:25:29;6.47;;;5.93;;
5117;SDS011;2578;51.622;7.046;2022-12-16T01:27:55;3.00;;;2.70;;
5117;SDS011;2578;51.622;7.046;2022-12-16T01:30:21;3.10;;;2.80;;
5117;SDS011;2578;51.622;7.046;2022-12-16T01:32:47;3.03;;;2.73;;
5117;SDS011;2578;51.622;7.046;2022-12-16T01:35:13;2.77;;;2.20;;
5117;SDS011;2578;51.622;7.046;2022-12-16T01:37:38;2.83;;;2.40;;
5117;SDS011;2578;51.622;7.046;2022-12-16T01:40:04;3.00;;;2.60;;
5117;SDS011;2578;51.622;7.046;2022-12-16T01:42:31;3.00;;;2.50;;
5117;SDS011;2578;51.622;7.046;2022-12-16T01:45:20;3.50;;;3.20;;
5117;SDS011;2578;51.622;7.046;2022-12-16T01:47:49;3.23;;;2.93;;
5117;SDS011;2578;51.622;7.046;2022-12-16T01:50:17;10.63;;;5.13;;
5117;SDS011;2578;51.622;7.046;2022-12-16T01:52:45;7.67;;;6.70;;
5117;SDS011;2578;51.622;7.046;2022-12-16T01:55:17;5.93;;;5.43;;
5117;SDS011;2578;51.622;7.046;2022-12-16T01:58:13;7.63;;;3.80;;
5117;SDS011;2578;51.622;7.046;2022-12-16T02:00:43;3.10;;;2.60;;
5117;SDS011;2578;51.622;7.046;2022-12-16T02:03:08;3.03;;;2.63;;
5117;SDS011;2578;51.622;7.046;2022-12-16T02:05:36;3.03;;;2.60;;
5117;SDS011;2578;51.622;7.046;2022-12-16T02:16:41;3.00;;;2.40;;
5117;SDS011;2578;51.622;7.046;2022-12-16T02:28:07;13.30;;;8.13;;
5117;SDS011;2578;51.622;7.046;2022-12-16T02:33:12;3.17;;;2.70;;
5117;SDS011;2578;51.622;7.046;2022-12-16T02:38:58;3.00;;;2.50;;
5117;SDS011;2578;51.622;7.046;2022-12-16T02:44:07;3.10;;;2.70;;
5117;SDS011;2578;51.622;7.046;2022-12-16T02:46:38;3.10;;;2.60;;
5117;SDS011;2578;51.622;7.046;2022-12-16T02:51:37;3.00;;;2.50;;
5117;SDS011;2578;51.622;7.046;2022-12-16T02:54:04;4.53;;;4.10;;
5117;SDS011;2578;51.622;7.046;2022-12-16T02:59:50;13.70;;;11.63;;
5117;SDS011;2578;51.622;7.046;2022-12-16T03:05:11;5.17;;;4.77;;
5117;SDS011;2578;51.622;7.046;2022-12-16T03:07:39;5.40;;;4.80;;
5117;SDS011;2578;51.622;7.046;2022-12-16T03:10:09;3.20;;;2.90;;
5117;SDS011;2578;51.622;7.046;2022-12-16T03:12:39;6.47;;;5.53;;
5117;SDS011;2578;51.622;7.046;2022-12-16T03:15:08;6.57;;;5.90;;
5117;SDS011;2578;51.622;7.046;2022-12-16T03:17:37;4.13;;;3.73;;
5117;SDS011;2578;51.622;7.046;2022-12-16T03:20:17;5.50;;;5.00;;
5117;SDS011;2578;51.622;7.046;2022-12-16T03:22:48;4.03;;;3.70;;
5117;SDS011;2578;51.622;7.046;2022-12-16T03:25:18;3.30;;;2.80;;
5117;SDS011;2578;51.622;7.046;2022-12-16T03:30:29;11.63;;;6.17;;
5117;SDS011;2578;51.622;7.046;2022-12-16T03:33:01;16.70;;;15.10;;
5117;SDS011;2578;51.622;7.046;2022-12-16T03:35:35;4.77;;;3.83;;
5117;SDS011;2578;51.622;7.046;2022-12-16T03:38:08;5.33;;;4.30;;
5117;SDS011;2578;51.622;7.046;2022-12-16T03:40:36;6.53;;;4.67;;
5117;SDS011;2578;51.622;7.046;2022-12-16T03:43:04;6.70;;;5.33;;
5117;SDS011;2578;51.622;7.046;2022-12-16T03:45:38;3.10;;;2.60;;
5117;SDS011;2578;51.622;7.046;2022-12-16T03:48:06;4.30;;;3.80;;
5117;SDS011;2578;51.622;7.046;2022-12-16T03:50:33;3.27;;;2.97;;
5117;SDS011;2578;51.622;7.046;2022-12-16T03:53:00;3.10;;;2.67;;
5117;SDS011;2578;51.622;7.046;2022-12-16T03:55:26;3.73;;;3.27;;
5117;SDS011;2578;51.622;7.046;2022-12-16T03:57:52;37.03;;;7.03;;
5117;SDS011;2578;51.622;7.046;2022-12-16T04:00:18;9.87;;;6.50;;
5117;SDS011;2578;51.622;7.046;2022-12-16T04:02:44;25.30;;;15.27;;
5117;SDS011;2578;51.622;7.046;2022-12-16T04:05:10;7.07;;;6.30;;
5117;SDS011;2578;51.622;7.046;2022-12-16T04:07:36;39.60;;;13.03;;
5117;SDS011;2578;51.622;7.046;2022-12-16T04:10:02;18.00;;;10.60;;
5117;SDS011;2578;51.622;7.046;2022-12-16T04:12:28;6.63;;;6.07;;
5117;SDS011;2578;51.622;7.046;2022-12-16T04:15:12;50.53;;;19.47;;
5117;SDS011;2578;51.622;7.046;2022-12-16T04:17:44;36.53;;;16.37;;
5117;SDS011;2578;51.622;7.046;2022-12-16T04:20:32;78.33;;;27.23;;
5117;SDS011;2578;51.622;7.046;2022-12-16T04:23:20;64.80;;;26.90;;
5117;SDS011;2578;51.622;7.046;2022-12-16T04:26:07;17.93;;;13.50;;
5117;SDS011;2578;51.622;7.046;2022-12-16T04:28:33;16.53;;;6.97;;
5117;SDS011;2578;51.622;7.046;2022-12-16T04:30:58;3.03;;;2.60;;
5117;SDS011;2578;51.622;7.046;2022-12-16T04:33:24;3.50;;;3.20;;
5117;SDS011;2578;51.622;7.046;2022-12-16T04:36:08;8.60;;;6.73;;
5117;SDS011;2578;51.622;7.046;2022-12-16T04:38:52;5.57;;;4.93;;
5117;SDS011;2578;51.622;7.046;2022-12-16T04:41:36;3.10;;;2.80;;
5117;SDS011;2578;51.622;7.046;2022-12-16T04:44:21;6.80;;;4.20;;
5117;SDS011;2578;51.622;7.046;2022-12-16T04:47:05;3.33;;;3.03;;
5117;SDS011;2578;51.622;7.046;2022-12-16T04:49:48;6.80;;;5.10;;
5117;SDS011;2578;51.622;7.046;2022-12-16T04:52:33;8.20;;;6.47;;
5117;SDS011;2578;51.622;7.046;2022-12-16T04:55:18;3.10;;;2.80;;
5117;SDS011;2578;51.622;7.046;2022-12-16T04:58:03;3.67;;;3.23;;
5117;SDS011;2578;51.622;7.046;2022-12-16T05:00:48;7.80;;;5.10;;
5117;SDS011;2578;51.622;7.046;2022-12-16T05:03:32;5.70;;;5.10;;
5117;SDS011;2578;51.622;7.046;2022-12-16T05:06:17;6.97;;;3.80;;
5117;SDS011;2578;51.622;7.046;2022-12-16T05:09:02;7.87;;;7.07;;
5117;SDS011;2578;51.622;7.046;2022-12-16T05:11:46;4.03;;;3.37;;
5117;SDS011;2578;51.622;7.046;2022-12-16T05:14:31;2.90;;;2.40;;
5117;SDS011;2578;51.622;7.046;2022-12-16T05:17:15;2.87;;;2.37;;
5117;SDS011;2578;51.622;7.046;2022-12-16T05:19:59;2.90;;;2.30;;
5117;SDS011;2578;51.622;7.046;2022-12-16T05:22:43;3.10;;;2.80;;
5117;SDS011;2578;51.622;7.046;2022-12-16T05:25:28;2.90;;;2.43;;
5117;SDS011;2578;51.622;7.046;2022-12-16T05:28:12;2.90;;;2.50;;
5117;SDS011;2578;51.622;7.046;2022-12-16T05:30:56;3.90;;;3.50;;
5117;SDS011;2578;51.622;7.046;2022-12-16T05:33:40;4.20;;;3.80;;
5117;SDS011;2578;51.622;7.046;2022-12-16T05:36:24;3.10;;;2.77;;
5117;SDS011;2578;51.622;7.046;2022-12-16T05:39:08;3.10;;;2.80;;
5117;SDS011;2578;51.622;7.046;2022-12-16T05:41:53;3.17;;;2.87;;
5117;SDS011;2578;51.622;7.046;2022-12-16T05:44:38;3.20;;;2.90;;
5117;SDS011;2578;51.622;7.046;2022-12-16T05:47:22;3.37;;;3.07;;
5117;SDS011;2578;51.622;7.046;2022-12-16T05:50:06;3.13;;;2.83;;
5117;SDS011;2578;51.622;7.046;2022-12-16T05:52:52;3.30;;;3.00;;
5117;SDS011;2578;51.622;7.046;2022-12-16T05:55:37;3.00;;;2.70;;
5117;SDS011;2578;51.622;7.046;2022-12-16T05:58:22;3.00;;;2.70;;
5117;SDS011;2578;51.622;7.046;2022-12-16T06:01:07;3.73;;;3.33;;
5117;SDS011;2578;51.622;7.046;2022-12-16T06:03:51;4.10;;;3.80;;
5117;SDS011;2578;51.622;7.046;2022-12-16T06:06:36;3.50;;;3.20;;
5117;SDS011;2578;51.622;7.046;2022-12-16T06:09:21;4.00;;;3.70;;
5117;SDS011;2578;51.622;7.046;2022-12-16T06:12:05;3.83;;;3.53;;
5117;SDS011;2578;51.622;7.046;2022-12-16T06:14:50;3.60;;;3.30;;
5117;SDS011;2578;51.622;7.046;2022-12-16T06:17:34;3.90;;;3.60;;
5117;SDS011;2578;51.622;7.046;2022-12-16T06:20:18;4.33;;;4.03;;
5117;SDS011;2578;51.622;7.046;2022-12-16T06:23:03;4.47;;;4.17;;
5117;SDS011;2578;51.622;7.046;2022-12-16T06:25:47;5.30;;;4.83;;
5117;SDS011;2578;51.622;7.046;2022-12-16T06:28:31;16.03;;;8.83;;
5117;SDS011;2578;51.622;7.046;2022-12-16T06:31:15;4.00;;;3.70;;
5117;SDS011;2578;51.622;7.046;2022-12-16T06:33:59;5.23;;;4.47;;
5117;SDS011;2578;51.622;7.046;2022-12-16T06:36:43;3.50;;;3.20;;
5117;SDS011;2578;51.622;7.046;2022-12-16T06:39:27;6.07;;;5.47;;
5117;SDS011;2578;51.622;7.046;2022-12-16T06:42:11;20.47;;;6.43;;
5117;SDS011;2578;51.622;7.046;2022-12-16T06:44:55;9.17;;;8.37;;
5117;SDS011;2578;51.622;7.046;2022-12-16T06:47:41;7.83;;;5.60;;
5117;SDS011;2578;51.622;7.046;2022-12-16T06:50:26;3.40;;;3.10;;
5117;SDS011;2578;51.622;7.046;2022-12-16T06:53:10;3.30;;;3.00;;
5117;SDS011;2578;51.622;7.046;2022-12-16T06:55:54;5.33;;;4.10;;
5117;SDS011;2578;51.622;7.046;2022-12-16T06:58:38;11.30;;;10.23;;
5117;SDS011;2578;51.622;7.046;2022-12-16T07:01:22;5.47;;;4.30;;
5117;SDS011;2578;51.622;7.046;2022-12-16T07:04:06;3.77;;;3.47;;
5117;SDS011;2578;51.622;7.046;2022-12-16T07:06:50;5.77;;;5.27;;
5117;SDS011;2578;51.622;7.046;2022-12-16T07:09:35;7.90;;;6.47;;
5117;SDS011;2578;51.622;7.046;2022-12-16T07:12:19;5.77;;;5.33;;
5117;SDS011;2578;51.622;7.046;2022-12-16T07:15:03;11.87;;;4.50;;
5117;SDS011;2578;51.622;7.046;2022-12-16T07:17:47;3.33;;;3.03;;
5117;SDS011;2578;51.622;7.046;2022-12-16T07:20:31;4.17;;;3.77;;
5117;SDS011;2578;51.622;7.046;2022-12-16T07:23:15;4.10;;;3.80;;
5117;SDS011;2578;51.622;7.046;2022-12-16T07:25:59;8.10;;;6.10;;
5117;SDS011;2578;51.622;7.046;2022-12-16T07:28:44;3.70;;;3.30;;
5117;SDS011;2578;51.622;7.046;2022-12-16T07:31:28;5.47;;;3.73;;
5117;SDS011;2578;51.622;7.046;2022-12-16T07:34:12;10.43;;;9.33;;
5117;SDS011;2578;51.622;7.046;2022-12-16T07:36:57;10.00;;;4.73;;
5117;SDS011;2578;51.622;7.046;2022-12-16T07:39:41;3.70;;;3.17;;
5117;SDS011;2578;51.622;7.046;2022-12-16T07:42:25;4.40;;;4.00;;
5117;SDS011;2578;51.622;7.046;2022-12-16T07:45:09;3.47;;;2.93;;
5117;SDS011;2578;51.622;7.046;2022-12-16T07:47:54;2.70;;;2.10;;
5117;SDS011;2578;51.622;7.046;2022-12-16T07:50:38;3.57;;;3.03;;
5117;SDS011;2578;51.622;7.046;2022-12-16T07:53:23;2.90;;;2.20;;
5117;SDS011;2578;51.622;7.046;2022-12-16T07:56:07;2.93;;;2.20;;
5117;SDS011;2578;51.622;7.046;2022-12-16T07:58:52;9.57;;;6.47;;
5117;SDS011;2578;51.622;7.046;2022-12-16T08:01:36;2.90;;;2.40;;
5117;SDS011;2578;51.622;7.046;2022-12-16T08:04:22;3.07;;;2.50;;
5117;SDS011;2578;51.622;7.046;2022-12-16T08:07:26;6.70;;;2.87;;
5117;SDS011;2578;51.622;7.046;2022-12-16T08:10:10;13.93;;;3.73;;
5117;SDS011;2578;51.622;7.046;2022-12-16T08:13:00;3.87;;;3.47;;
5117;SDS011;2578;51.622;7.046;2022-12-16T08:15:45;3.00;;;2.30;;
5117;SDS011;2578;51.622;7.046;2022-12-16T08:18:30;2.97;;;2.20;;
5117;SDS011;2578;51.622;7.046;2022-12-16T08:21:14;3.10;;;2.70;;
5117;SDS011;2578;51.622;7.046;2022-12-16T08:23:58;3.03;;;2.40;;
5117;SDS011;2578;51.622;7.046;2022-12-16T08:26:42;3.07;;;2.40;;
5117;SDS011;2578;51.622;7.046;2022-12-16T08:29:26;2.83;;;2.00;;
5117;SDS011;2578;51.622;7.046;2022-12-16T08:32:10;3.03;;;2.33;;
5117;SDS011;2578;51.622;7.046;2022-12-16T08:34:55;3.20;;;2.80;;
5117;SDS011;2578;51.622;7.046;2022-12-16T08:37:39;3.10;;;2.50;;
5117;SDS011;2578;51.622;7.046;2022-12-16T08:40:23;3.00;;;2.30;;
5117;SDS011;2578;51.622;7.046;2022-12-16T08:43:08;3.10;;;2.70;;
5117;SDS011;2578;51.622;7.046;2022-12-16T08:45:52;3.00;;;2.13;;
5117;SDS011;2578;51.622;7.046;2022-12-16T08:48:36;4.17;;;3.33;;
5117;SDS011;2578;51.622;7.046;2022-12-16T08:51:20;3.10;;;2.40;;
5117;SDS011;2578;51.622;7.046;2022-12-16T08:54:04;3.10;;;2.50;;
5117;SDS011;2578;51.622;7.046;2022-12-16T08:56:49;3.10;;;2.40;;
5117;SDS011;2578;51.622;7.046;2022-12-16T08:59:33;4.87;;;4.37;;
5117;SDS011;2578;51.622;7.046;2022-12-16T09:02:17;8.90;;;4.07;;
5117;SDS011;2578;51.622;7.046;2022-12-16T09:05:01;3.10;;;2.40;;
5117;SDS011;2578;51.622;7.046;2022-12-16T09:07:45;3.00;;;2.20;;
5117;SDS011;2578;51.622;7.046;2022-12-16T09:10:29;4.50;;;3.60;;
5117;SDS011;2578;51.622;7.046;2022-12-16T09:13:14;2.97;;;1.90;;
5117;SDS011;2578;51.622;7.046;2022-12-16T09:15:59;3.30;;;2.80;;
5117;SDS011;2578;51.622;7.046;2022-12-16T09:18:43;2.90;;;2.00;;
5117;SDS011;2578;51.622;7.046;2022-12-16T09:21:27;6.30;;;5.80;;
5117;SDS011;2578;51.622;7.046;2022-12-16T09:24:12;3.40;;;3.07;;
5117;SDS011;2578;51.622;7.046;2022-12-16T09:26:56;3.37;;;3.07;;
5117;SDS011;2578;51.622;7.046;2022-12-16T09:29:40;8.60;;;6.03;;
5117;SDS011;2578;51.622;7.046;2022-12-16T09:32:24;3.10;;;2.40;;
5117;SDS011;2578;51.622;7.046;2022-12-16T09:35:08;3.40;;;2.77;;
5117;SDS011;2578;51.622;7.046;2022-12-16T09:37:53;8.40;;;4.73;;
5117;SDS011;2578;51.622;7.046;2022-12-16T09:40:37;6.23;;;3.70;;
5117;SDS011;2578;51.622;7.046;2022-12-16T09:46:29;7.73;;;4.83;;
5117;SDS011;2578;51.622;7.046;2022-12-16T09:49:22;5.53;;;4.10;;
5117;SDS011;2578;51.622;7.046;2022-12-16T09:52:53;4.37;;;3.33;;
5117;SDS011;2578;51.622;7.046;2022-12-16T09:55:41;3.80;;;3.03;;
5117;SDS011;2578;51.622;7.046;2022-12-16T09:58:28;4.63;;;3.20;;
5117;SDS011;2578;51.622;7.046;2022-12-16T10:01:17;3.27;;;2.67;;
5117;SDS011;2578;51.622;7.046;2022-12-16T10:04:03;3.10;;;2.40;;
5117;SDS011;2578;51.622;7.046;2022-12-16T10:06:52;3.00;;;2.20;;
5117;SDS011;2578;51.622;7.046;2022-12-16T10:12:51;14.37;;;4.83;;
5117;SDS011;2578;51.622;7.046;2022-12-16T10:21:44;22.10;;;10.53;;
5117;SDS011;2578;51.622;7.046;2022-12-16T10:24:50;10.37;;;6.57;;
5117;SDS011;2578;51.622;7.046;2022-12-16T10:27:43;4.77;;;4.37;;
5117;SDS011;2578;51.622;7.046;2022-12-16T10:30:29;9.33;;;7.10;;
5117;SDS011;2578;51.622;7.046;2022-12-16T10:33:15;7.50;;;6.10;;
5117;SDS011;2578;51.622;7.046;2022-12-16T10:36:02;14.90;;;8.70;;
5117;SDS011;2578;51.622;7.046;2022-12-16T10:38:56;11.13;;;7.57;;
5117;SDS011;2578;51.622;7.046;2022-12-16T10:41:47;13.83;;;7.80;;
5117;SDS011;2578;51.622;7.046;2022-12-16T10:44:49;8.30;;;5.50;;
5117;SDS011;2578;51.622;7.046;2022-12-16T10:47:37;34.70;;;19.10;;
5117;SDS011;2578;51.622;7.046;2022-12-16T10:50:22;6.33;;;5.10;;
5117;SDS011;2578;51.622;7.046;2022-12-16T10:53:13;10.00;;;4.70;;
5117;SDS011;2578;51.622;7.046;2022-12-16T10:56:06;29.67;;;10.90;;
5117;SDS011;2578;51.622;7.046;2022-12-16T10:59:08;23.80;;;13.00;;
5117;SDS011;2578;51.622;7.046;2022-12-16T11:04:41;20.80;;;10.17;;
5117;SDS011;2578;51.622;7.046;2022-12-16T11:10:57;4.90;;;4.47;;
5117;SDS011;2578;51.622;7.046;2022-12-16T11:13:30;15.37;;;10.47;;
5117;SDS011;2578;51.622;7.046;2022-12-16T11:16:18;18.93;;;10.80;;
5117;SDS011;2578;51.622;7.046;2022-12-16T11:19:24;11.33;;;9.70;;
5117;SDS011;2578;51.622;7.046;2022-12-16T11:22:22;7.63;;;6.93;;
5117;SDS011;2578;51.622;7.046;2022-12-16T11:25:19;9.73;;;8.73;;
5117;SDS011;2578;51.622;7.046;2022-12-16T11:28:14;4.70;;;4.30;;
5117;SDS011;2578;51.622;7.046;2022-12-16T11:31:11;3.07;;;2.30;;
5117;SDS011;2578;51.622;7.046;2022-12-16T11:33:57;3.00;;;2.30;;
5117;SDS011;2578;51.622;7.046;2022-12-16T11:36:44;3.10;;;2.20;;
5117;SDS011;2578;51.622;7.046;2022-12-16T11:39:29;3.03;;;2.30;;
5117;SDS011;2578;51.622;7.046;2022-12-16T11:45:23;4.60;;;4.20;;
5117;SDS011;2578;51.622;7.046;2022-12-16T11:50:59;7.23;;;4.43;;
5117;SDS011;2578;51.622;7.046;2022-12-16T11:54:01;4.23;;;3.83;;
5117;SDS011;2578;51.622;7.046;2022-12-16T11:56:58;6.30;;;5.80;;
5117;SDS011;2578;51.622;7.046;2022-12-16T11:59:52;14.03;;;10.57;;
5117;SDS011;2578;51.622;7.046;2022-12-16T12:08:47;22.80;;;21.20;;
5117;SDS011;2578;51.622;7.046;2022-12-16T12:11:51;31.43;;;28.87;;
5117;SDS011;2578;51.622;7.046;2022-12-16T12:14:43;31.50;;;29.10;;
5117;SDS011;2578;51.622;7.046;2022-12-16T12:26:18;28.30;;;26.00;;
5117;SDS011;2578;51.622;7.046;2022-12-16T12:30:12;30.07;;;27.77;;
5117;SDS011;2578;51.622;7.046;2022-12-16T12:42:09;29.87;;;26.90;;
5117;SDS011;2578;51.622;7.046;2022-12-16T12:48:23;53.23;;;36.73;;
5117;SDS011;2578;51.622;7.046;2022-12-16T12:57:03;40.23;;;29.57;;
5117;SDS011;2578;51.622;7.046;2022-12-16T12:59:55;25.70;;;22.77;;
5117;SDS011;2578;51.622;7.046;2022-12-16T13:02:54;26.73;;;24.10;;
5117;SDS011;2578;51.622;7.046;2022-12-16T13:05:50;38.90;;;28.43;;
5117;SDS011;2578;51.622;7.046;2022-12-16T13:11:20;23.10;;;21.03;;
5117;SDS011;2578;51.622;7.046;2022-12-16T13:17:15;20.97;;;19.60;;
5117;SDS011;2578;51.622;7.046;2022-12-16T13:20:04;18.70;;;17.50;;
5117;SDS011;2578;51.622;7.046;2022-12-16T13:23:27;33.60;;;29.67;;
5117;SDS011;2578;51.622;7.046;2022-12-16T13:26:19;32.10;;;23.83;;
5117;SDS011;2578;51.622;7.046;2022-12-16T13:35:03;33.50;;;25.47;;
5117;SDS011;2578;51.622;7.046;2022-12-16T13:41:01;23.30;;;21.50;;
5117;SDS011;2578;51.622;7.046;2022-12-16T13:43:57;24.77;;;22.33;;
5117;SDS011;2578;51.622;7.046;2022-12-16T13:47:15;53.33;;;29.97;;
5117;SDS011;2578;51.622;7.046;2022-12-16T13:50:37;30.03;;;20.50;;
5117;SDS011;2578;51.622;7.046;2022-12-16T13:53:46;24.77;;;15.57;;
5117;SDS011;2578;51.622;7.046;2022-12-16T13:56:36;26.03;;;23.20;;
5117;SDS011;2578;51.622;7.046;2022-12-16T13:59:29;17.87;;;16.47;;
5117;SDS011;2578;51.622;7.046;2022-12-16T14:02:37;32.73;;;22.30;;
5117;SDS011;2578;51.622;7.046;2022-12-16T14:05:27;61.87;;;32.13;;
5117;SDS011;2578;51.622;7.046;2022-12-16T14:08:14;73.10;;;30.90;;
5117;SDS011;2578;51.622;7.046;2022-12-16T14:11:02;61.27;;;25.83;;
5117;SDS011;2578;51.622;7.046;2022-12-16T14:25:25;11.17;;;10.30;;
5117;SDS011;2578;51.622;7.046;2022-12-16T14:28:16;21.47;;;11.47;;
5117;SDS011;2578;51.622;7.046;2022-12-16T14:31:03;18.40;;;15.73;;
5117;SDS011;2578;51.622;7.046;2022-12-16T14:33:52;57.37;;;21.30;;
5117;SDS011;2578;51.622;7.046;2022-12-16T14:36:37;19.70;;;11.47;;
5117;SDS011;2578;51.622;7.046;2022-12-16T14:39:23;24.43;;;14.33;;
5117;SDS011;2578;51.622;7.046;2022-12-16T14:42:18;7.10;;;6.50;;
5117;SDS011;2578;51.622;7.046;2022-12-16T14:45:19;16.53;;;11.40;;
5117;SDS011;2578;51.622;7.046;2022-12-16T14:56:59;11.50;;;8.10;;
5117;SDS011;2578;51.622;7.046;2022-12-16T14:59:43;21.60;;;9.50;;
5117;SDS011;2578;51.622;7.046;2022-12-16T15:02:28;7.43;;;6.83;;
5117;SDS011;2578;51.622;7.046;2022-12-16T15:05:18;7.73;;;7.13;;
5117;SDS011;2578;51.622;7.046;2022-12-16T15:08:07;6.37;;;4.47;;
5117;SDS011;2578;51.622;7.046;2022-12-16T15:10:54;51.60;;;22.97;;
5117;SDS011;2578;51.622;7.046;2022-12-16T15:13:39;57.70;;;22.47;;
5117;SDS011;2578;51.622;7.046;2022-12-16T15:16:25;37.37;;;19.97;;
5117;SDS011;2578;51.622;7.046;2022-12-16T15:19:17;9.93;;;9.00;;
5117;SDS011;2578;51.622;7.046;2022-12-16T15:22:04;15.73;;;11.30;;
5117;SDS011;2578;51.622;7.046;2022-12-16T15:24:48;26.77;;;14.77;;
5117;SDS011;2578;51.622;7.046;2022-12-16T15:27:33;36.83;;;16.47;;
5117;SDS011;2578;51.622;7.046;2022-12-16T15:30:35;18.63;;;12.23;;
5117;SDS011;2578;51.622;7.046;2022-12-16T15:33:31;48.20;;;21.10;;
5117;SDS011;2578;51.622;7.046;2022-12-16T15:36:33;52.03;;;18.53;;
5117;SDS011;2578;51.622;7.046;2022-12-16T15:42:17;44.40;;;20.60;;
5117;SDS011;2578;51.622;7.046;2022-12-16T15:45:28;50.73;;;22.03;;
5117;SDS011;2578;51.622;7.046;2022-12-16T15:48:22;29.87;;;16.90;;
5117;SDS011;2578;51.622;7.046;2022-12-16T15:51:29;35.03;;;16.57;;
5117;SDS011;2578;51.622;7.046;2022-12-16T15:54:28;20.47;;;10.70;;
5117;SDS011;2578;51.622;7.046;2022-12-16T15:58:13;15.63;;;8.17;;
5117;SDS011;2578;51.622;7.046;2022-12-16T16:00:37;9.73;;;8.90;;
5117;SDS011;2578;51.622;7.046;2022-12-16T16:03:26;37.80;;;18.00;;
5117;SDS011;2578;51.622;7.046;2022-12-16T16:08:59;96.73;;;29.90;;
5117;SDS011;2578;51.622;7.046;2022-12-16T16:11:44;93.43;;;19.37;;
5117;SDS011;2578;51.622;7.046;2022-12-16T16:14:28;98.37;;;37.20;;
5117;SDS011;2578;51.622;7.046;2022-12-16T16:17:30;88.90;;;31.30;;
5117;SDS011;2578;51.622;7.046;2022-12-16T16:20:15;25.90;;;13.20;;
5117;SDS011;2578;51.622;7.046;2022-12-16T16:23:00;16.70;;;11.53;;
5117;SDS011;2578;51.622;7.046;2022-12-16T16:25:46;26.03;;;11.47;;
5117;SDS011;2578;51.622;7.046;2022-12-16T16:28:31;20.90;;;13.83;;
5117;SDS011;2578;51.622;7.046;2022-12-16T16:31:15;26.30;;;11.93;;
5117;SDS011;2578;51.622;7.046;2022-12-16T16:33:59;14.63;;;7.70;;
5117;SDS011;2578;51.622;7.046;2022-12-16T16:36:43;7.50;;;6.80;;
5117;SDS011;2578;51.622;7.046;2022-12-16T16:39:29;47.20;;;15.90;;
5117;SDS011;2578;51.622;7.046;2022-12-16T16:42:13;13.63;;;11.03;;
5117;SDS011;2578;51.622;7.046;2022-12-16T16:44:57;5.20;;;4.80;;
5117;SDS011;2578;51.622;7.046;2022-12-16T16:47:42;7.87;;;7.27;;
5117;SDS011;2578;51.622;7.046;2022-12-16T16:50:26;9.83;;;9.03;;
5117;SDS011;2578;51.622;7.046;2022-12-16T16:53:14;29.67;;;8.23;;
5117;SDS011;2578;51.622;7.046;2022-12-16T16:55:58;4.43;;;4.03;;
5117;SDS011;2578;51.622;7.046;2022-12-16T16:58:43;4.95;;;4.55;;
5117;SDS011;2578;51.622;7.046;2022-12-16T17:01:27;6.03;;;5.53;;
5117;SDS011;2578;51.622;7.046;2022-12-16T17:04:12;4.90;;;4.50;;
5117;SDS011;2578;51.622;7.046;2022-12-16T17:06:56;5.30;;;4.90;;
5117;SDS011;2578;51.622;7.046;2022-12-16T17:09:40;5.17;;;4.77;;
5117;SDS011;2578;51.622;7.046;2022-12-16T17:12:28;10.27;;;8.50;;
5117;SDS011;2578;51.622;7.046;2022-12-16T17:15:17;6.73;;;5.50;;
5117;SDS011;2578;51.622;7.046;2022-12-16T17:18:04;5.53;;;5.07;;
5117;SDS011;2578;51.622;7.046;2022-12-16T17:20:49;14.80;;;12.10;;
5117;SDS011;2578;51.622;7.046;2022-12-16T17:23:33;7.77;;;4.67;;
5117;SDS011;2578;51.622;7.046;2022-12-16T17:26:17;4.77;;;4.37;;
5117;SDS011;2578;51.622;7.046;2022-12-16T17:29:02;3.73;;;3.43;;
5117;SDS011;2578;51.622;7.046;2022-12-16T17:31:48;15.27;;;12.50;;
5117;SDS011;2578;51.622;7.046;2022-12-16T17:34:33;5.10;;;4.70;;
5117;SDS011;2578;51.622;7.046;2022-12-16T17:37:17;4.80;;;4.40;;
5117;SDS011;2578;51.622;7.046;2022-12-16T17:40:02;5.43;;;4.93;;
5117;SDS011;2578;51.622;7.046;2022-12-16T17:42:47;4.20;;;3.80;;
5117;SDS011;2578;51.622;7.046;2022-12-16T17:45:31;3.60;;;3.30;;
5117;SDS011;2578;51.622;7.046;2022-12-16T17:48:15;11.53;;;7.17;;
5117;SDS011;2578;51.622;7.046;2022-12-16T17:51:00;28.83;;;10.10;;
5117;SDS011;2578;51.622;7.046;2022-12-16T17:53:45;14.07;;;9.47;;
5117;SDS011;2578;51.622;7.046;2022-12-16T17:56:30;8.70;;;6.37;;
5117;SDS011;2578;51.622;7.046;2022-12-16T17:59:14;3.70;;;3.40;;
5117;SDS011;2578;51.622;7.046;2022-12-16T18:01:58;22.03;;;7.83;;
5117;SDS011;2578;51.622;7.046;2022-12-16T18:04:42;34.27;;;11.20;;
5117;SDS011;2578;51.622;7.046;2022-12-16T18:07:43;9.10;;;8.40;;
5117;SDS011;2578;51.622;7.046;2022-12-16T18:10:26;22.07;;;10.30;;
5117;SDS011;2578;51.622;7.046;2022-12-16T18:13:11;6.23;;;5.63;;
5117;SDS011;2578;51.622;7.046;2022-12-16T18:15:55;5.03;;;4.63;;
5117;SDS011;2578;51.622;7.046;2022-12-16T18:18:39;7.20;;;5.77;;
5117;SDS011;2578;51.622;7.046;2022-12-16T18:21:23;3.97;;;3.67;;
5117;SDS011;2578;51.622;7.046;2022-12-16T18:24:07;4.43;;;4.00;;
5117;SDS011;2578;51.622;7.046;2022-12-16T18:26:51;7.47;;;6.47;;
5117;SDS011;2578;51.622;7.046;2022-12-16T18:29:36;5.43;;;4.63;;
5117;SDS011;2578;51.622;7.046;2022-12-16T18:32:20;3.80;;;3.50;;
5117;SDS011;2578;51.622;7.046;2022-12-16T18:35:04;3.60;;;3.30;;
5117;SDS011;2578;51.622;7.046;2022-12-16T18:37:48;16.17;;;9.60;;
5117;SDS011;2578;51.622;7.046;2022-12-16T18:40:32;3.70;;;3.40;;
5117;SDS011;2578;51.622;7.046;2022-12-16T18:43:17;12.57;;;11.53;;
5117;SDS011;2578;51.622;7.046;2022-12-16T18:46:01;6.80;;;6.30;;
5117;SDS011;2578;51.622;7.046;2022-12-16T18:48:45;14.10;;;8.70;;
5117;SDS011;2578;51.622;7.046;2022-12-16T18:51:29;3.30;;;2.73;;
5117;SDS011;2578;51.622;7.046;2022-12-16T18:54:13;8.20;;;4.20;;
5117;SDS011;2578;51.622;7.046;2022-12-16T18:56:57;25.33;;;16.13;;
5117;SDS011;2578;51.622;7.046;2022-12-16T18:59:41;3.70;;;3.40;;